createdAt,value
2022-09-13T00:01:11.998Z,96267.59
2022-09-13T00:04:04.839Z,96246.16
2022-09-13T00:06:34.452Z,96197.44
2022-09-13T00:09:02.898Z,96197.22
2022-09-13T00:11:32.365Z,96184.38
2022-09-13T00:14:00.814Z,96247.44
2022-09-13T00:16:30.662Z,96233.09
2022-09-13T00:19:00.741Z,96159.44
2022-09-13T00:21:29.062Z,96243.78
2022-09-13T00:23:58.622Z,96191.53
2022-09-13T00:26:29.025Z,96170.31
2022-09-13T00:28:59.630Z,96228.75
2022-09-13T00:31:29.809Z,96186.81
2022-09-13T00:34:00.975Z,96197.47
2022-09-13T00:36:29.533Z,96175.88
2022-09-13T00:39:01.041Z,96180.91
2022-09-13T00:41:29.245Z,96167.28
2022-09-13T00:44:00.046Z,96194.13
2022-09-13T00:46:36.010Z,96067.53
2022-09-13T00:49:13.722Z,96162.44
2022-09-13T00:51:46.500Z,96161.63
2022-09-13T00:54:19.411Z,96153.66
2022-09-13T00:56:52.866Z,96201.63
2022-09-13T00:59:27.684Z,96136.00
2022-09-13T01:01:58.739Z,96201.53
2022-09-13T01:04:29.648Z,96171.03
2022-09-13T01:07:02.466Z,96146.00
2022-09-13T01:09:36.656Z,96189.75
2022-09-13T01:12:14.706Z,96136.28
2022-09-13T01:14:44.850Z,96159.25
2022-09-13T01:17:13.421Z,96168.06
2022-09-13T01:19:41.731Z,96142.75
2022-09-13T01:22:52.449Z,96203.34
2022-09-13T01:25:52.162Z,96165.63
2022-09-13T01:28:42.468Z,96162.22
2022-09-13T01:31:21.468Z,96174.31
2022-09-13T01:34:18.066Z,96156.56
2022-09-13T01:37:06.126Z,95851.81
2022-09-13T01:39:59.974Z,96161.41
2022-09-13T01:42:39.308Z,96154.94
2022-09-13T01:45:23.326Z,96190.41
2022-09-13T01:47:59.441Z,96181.03
2022-09-13T01:50:40.320Z,96155.19
2022-09-13T01:53:21.850Z,96151.94
2022-09-13T01:55:56.609Z,96161.09
2022-09-13T01:58:29.178Z,96173.50
2022-09-13T02:01:08.825Z,96240.09
2022-09-13T02:03:44.636Z,96212.63
2022-09-13T02:06:23.545Z,96118.84
2022-09-13T02:08:55.883Z,96145.38
2022-09-13T02:11:25.282Z,96177.31
2022-09-13T02:14:01.084Z,96164.69
2022-09-13T02:16:35.085Z,96152.06
2022-09-13T02:19:10.816Z,96089.03
2022-09-13T02:21:42.627Z,96147.75
2022-09-13T02:24:17.619Z,96152.28
2022-09-13T02:26:49.374Z,96013.56
2022-09-13T02:29:21.220Z,96117.34
2022-09-13T02:31:55.798Z,96161.94
2022-09-13T02:34:32.790Z,96118.75
2022-09-13T02:37:04.099Z,96105.13
2022-09-13T02:39:34.686Z,96123.34
2022-09-13T02:42:12.584Z,96154.09
2022-09-13T02:44:44.581Z,96161.00
2022-09-13T02:47:32.331Z,96064.28
2022-09-13T02:50:20.549Z,96018.97
2022-09-13T02:52:55.162Z,96149.97
2022-09-13T02:55:31.040Z,96154.25
2022-09-13T02:58:05.951Z,96155.41
2022-09-13T03:00:34.431Z,96091.81
2022-09-13T03:03:08.118Z,96134.81
2022-09-13T03:05:37.954Z,96149.25
2022-09-13T03:08:07.541Z,96167.00
2022-09-13T03:10:49.489Z,96135.72
2022-09-13T03:14:16.763Z,96151.81
2022-09-13T03:17:06.464Z,96187.75
2022-09-13T03:19:49.766Z,96189.69
2022-09-13T03:22:42.253Z,96101.16
2022-09-13T03:25:22.494Z,96134.06
2022-09-13T03:28:02.759Z,96137.31
2022-09-13T03:30:35.307Z,96160.59
2022-09-13T03:33:12.822Z,96103.84
2022-09-13T03:35:45.982Z,96067.97
2022-09-13T03:38:20.130Z,96149.53
2022-09-13T03:40:50.781Z,96106.31
2022-09-13T03:43:29.554Z,96117.75
2022-09-13T03:46:01.221Z,96143.31
2022-09-13T03:48:31.275Z,96148.41
2022-09-13T03:50:59.528Z,96126.72
2022-09-13T03:53:31.594Z,96122.78
2022-09-13T03:55:59.736Z,96183.44
2022-09-13T03:58:28.696Z,96071.91
2022-09-13T04:00:57.455Z,96189.88
2022-09-13T04:03:26.014Z,96139.50
2022-09-13T04:05:54.186Z,96153.34
2022-09-13T04:08:22.721Z,96057.06
2022-09-13T04:10:53.073Z,96128.59
2022-09-13T04:13:22.972Z,96109.16
2022-09-13T04:15:51.271Z,96161.50
2022-09-13T04:18:19.779Z,96153.50
2022-09-13T04:20:55.093Z,96135.75
2022-09-13T04:23:23.312Z,96171.06
2022-09-13T04:25:53.396Z,96155.78
2022-09-13T04:28:24.231Z,96144.59
2022-09-13T04:30:52.463Z,96152.31
2022-09-13T04:33:20.663Z,96128.59
2022-09-13T04:35:48.804Z,96159.63
2022-09-13T04:38:17.319Z,96144.28
2022-09-13T04:40:45.453Z,96179.06
2022-09-13T04:43:15.413Z,96142.91
2022-09-13T04:45:43.609Z,96107.81
2022-09-13T04:48:11.921Z,96152.50
2022-09-13T04:50:40.070Z,96145.25
2022-09-13T04:53:08.242Z,96103.00
2022-09-13T04:55:36.808Z,96100.25
2022-09-13T04:58:05.196Z,96094.28
2022-09-13T05:00:34.904Z,96151.00
2022-09-13T05:03:03.114Z,96138.91
2022-09-13T05:05:32.521Z,96114.94
2022-09-13T05:08:00.646Z,96122.41
2022-09-13T05:10:28.788Z,96122.41
2022-09-13T05:12:56.930Z,96148.31
2022-09-13T05:15:25.065Z,96235.28
2022-09-13T05:17:54.544Z,96144.22
2022-09-13T05:20:22.725Z,96160.00
2022-09-13T05:22:50.878Z,96162.75
2022-09-13T05:25:21.131Z,96139.94
2022-09-13T05:27:52.332Z,96162.13
2022-09-13T05:30:20.734Z,96142.16
2022-09-13T05:32:48.914Z,96147.22
2022-09-13T05:35:18.389Z,96127.31
2022-09-13T05:37:46.511Z,96156.97
2022-09-13T05:40:14.802Z,96144.06
2022-09-13T05:42:42.951Z,96273.41
2022-09-13T05:45:11.455Z,96176.13
2022-09-13T05:47:39.785Z,96190.16
2022-09-13T05:50:15.418Z,96181.31
2022-09-13T05:52:54.771Z,96187.84
2022-09-13T05:55:23.429Z,96181.66
2022-09-13T05:57:51.847Z,96215.84
2022-09-13T06:00:20.047Z,96186.69
2022-09-13T06:02:48.223Z,96172.91
2022-09-13T06:05:16.509Z,96170.91
2022-09-13T06:07:44.731Z,96165.47
2022-09-13T06:10:14.290Z,96161.47
2022-09-13T06:12:42.504Z,96146.19
2022-09-13T06:15:11.443Z,96162.97
2022-09-13T06:17:39.711Z,96163.38
2022-09-13T06:20:10.588Z,96184.69
2022-09-13T06:22:39.175Z,96188.69
2022-09-13T06:25:09.460Z,96166.88
2022-09-13T06:27:38.952Z,96180.34
2022-09-13T06:30:12.003Z,96164.50
2022-09-13T06:32:40.954Z,96146.44
2022-09-13T06:35:10.297Z,96172.31
2022-09-13T06:37:38.938Z,96228.00
2022-09-13T06:40:08.042Z,96213.19
2022-09-13T06:42:37.817Z,96167.09
2022-09-13T06:45:07.654Z,96116.91
2022-09-13T06:47:35.800Z,96177.66
2022-09-13T06:50:04.001Z,96165.47
2022-09-13T06:52:32.641Z,96171.22
2022-09-13T06:55:00.855Z,96153.34
2022-09-13T06:57:32.020Z,96172.50
2022-09-13T07:00:04.527Z,96163.13
2022-09-13T07:02:32.752Z,96114.28
2022-09-13T07:05:00.944Z,96129.22
2022-09-13T07:07:29.080Z,96182.22
2022-09-13T07:09:57.300Z,96115.22
2022-09-13T07:12:25.396Z,96150.72
2022-09-13T07:14:53.774Z,96083.38
2022-09-13T07:17:23.279Z,96122.66
2022-09-13T07:19:51.438Z,96172.41
2022-09-13T07:22:19.570Z,96169.38
2022-09-13T07:24:47.706Z,96129.03
2022-09-13T07:27:16.791Z,96151.88
2022-09-13T07:29:45.055Z,96140.00
2022-09-13T07:32:13.222Z,96106.47
2022-09-13T07:34:45.606Z,96165.66
2022-09-13T07:37:13.794Z,96140.28
2022-09-13T07:39:41.978Z,96168.91
2022-09-13T07:42:10.114Z,96170.91
2022-09-13T07:44:39.893Z,96118.31
2022-09-13T07:47:08.221Z,96180.34
2022-09-13T07:49:36.387Z,96102.13
2022-09-13T07:52:06.005Z,96079.72
2022-09-13T07:54:35.509Z,96122.75
2022-09-13T07:57:04.056Z,96126.63
2022-09-13T07:59:32.214Z,96125.28
2022-09-13T08:02:00.382Z,96113.56
2022-09-13T08:04:29.937Z,96120.78
2022-09-13T08:07:00.541Z,96115.72
2022-09-13T08:09:30.102Z,96109.78
2022-09-13T08:11:58.267Z,96134.31
2022-09-13T08:14:26.415Z,96148.84
2022-09-13T08:16:57.775Z,96161.03
2022-09-13T08:19:26.045Z,96181.91
2022-09-13T08:21:54.239Z,96135.94
2022-09-13T08:24:23.664Z,96132.59
2022-09-13T08:26:56.292Z,96138.22
2022-09-13T08:29:25.338Z,96140.97
2022-09-13T08:31:53.718Z,96161.00
2022-09-13T08:34:22.224Z,96158.78
2022-09-13T08:36:50.364Z,96149.47
2022-09-13T08:39:18.602Z,96132.91
2022-09-13T08:42:07.062Z,96151.34
2022-09-13T08:44:37.586Z,96166.81
2022-09-13T08:47:28.409Z,96141.25
2022-09-13T08:50:07.631Z,96104.47
2022-09-13T08:52:45.510Z,96136.41
2022-09-13T08:55:26.646Z,96166.38
2022-09-13T08:58:02.539Z,96218.88
2022-09-13T09:00:38.254Z,96116.66
2022-09-13T09:03:23.249Z,96131.75
2022-09-13T09:05:54.311Z,96139.31
2022-09-13T09:08:33.911Z,96159.88
2022-09-13T09:11:07.616Z,96103.50
2022-09-13T09:13:46.534Z,96115.50
2022-09-13T09:16:29.762Z,96102.91
2022-09-13T09:19:01.108Z,96155.09
2022-09-13T09:21:29.371Z,96192.34
2022-09-13T09:23:59.322Z,96167.47
2022-09-13T09:26:31.889Z,96155.31
2022-09-13T09:29:20.683Z,96158.53
2022-09-13T09:32:09.161Z,96147.38
2022-09-13T09:34:52.403Z,96105.03
2022-09-13T09:37:24.938Z,96201.38
2022-09-13T09:39:54.625Z,96089.88
2022-09-13T09:42:28.279Z,96134.97
2022-09-13T09:45:03.746Z,96130.25
2022-09-13T09:47:42.771Z,96119.06
2022-09-13T09:50:15.068Z,96011.00
2022-09-13T09:52:50.703Z,96145.69
2022-09-13T09:55:28.517Z,96127.84
2022-09-13T09:58:00.492Z,96155.75
2022-09-13T10:00:34.117Z,96159.59
2022-09-13T10:03:09.051Z,96111.69
2022-09-13T10:05:37.686Z,96141.16
2022-09-13T10:08:08.376Z,96035.47
2022-09-13T10:10:42.630Z,96014.09
2022-09-13T10:13:17.461Z,96048.41
2022-09-13T10:15:58.143Z,96012.06
2022-09-13T10:18:45.095Z,96055.06
2022-09-13T10:21:25.739Z,96104.06
2022-09-13T10:24:17.429Z,96071.72
2022-09-13T10:26:45.770Z,96088.28
2022-09-13T10:29:17.779Z,96027.19
2022-09-13T10:31:53.391Z,96063.41
2022-09-13T10:34:24.489Z,96080.97
2022-09-13T10:36:58.131Z,96002.31
2022-09-13T10:39:29.633Z,96001.56
2022-09-13T10:42:02.461Z,96073.91
2022-09-13T10:44:38.201Z,96087.94
2022-09-13T10:47:13.311Z,96062.72
2022-09-13T10:49:48.108Z,96014.72
2022-09-13T10:52:44.459Z,96073.00
2022-09-13T10:55:36.395Z,96116.81
2022-09-13T10:58:18.207Z,96099.06
2022-09-13T11:01:14.618Z,96062.59
2022-09-13T11:04:37.607Z,96108.41
2022-09-13T11:07:36.708Z,96043.81
2022-09-13T11:10:15.026Z,96110.09
2022-09-13T11:12:53.362Z,96095.59
2022-09-13T11:15:39.661Z,96103.00
2022-09-13T11:18:51.347Z,96086.78
2022-09-13T11:21:36.462Z,96110.00
2022-09-13T11:24:33.226Z,96134.34
2022-09-13T11:27:07.590Z,96101.09
2022-09-13T11:30:11.797Z,96095.97
2022-09-13T11:32:59.989Z,96112.53
2022-09-13T11:35:50.550Z,96086.81
2022-09-13T11:38:36.892Z,96101.91
2022-09-13T11:41:19.992Z,96094.56
2022-09-13T11:44:08.323Z,96147.91
2022-09-13T11:46:44.140Z,96074.44
2022-09-13T11:49:49.490Z,96102.81
2022-09-13T11:52:27.720Z,96083.88
2022-09-13T11:55:12.139Z,96102.75
2022-09-13T11:57:45.447Z,96031.59
2022-09-13T12:00:22.707Z,96113.56
2022-09-13T12:03:01.293Z,96075.34
2022-09-13T12:06:02.920Z,96046.25
2022-09-13T12:08:34.288Z,96065.91
2022-09-13T12:11:12.851Z,96060.25
2022-09-13T12:13:49.418Z,96039.88
2022-09-13T12:16:25.013Z,96042.28
2022-09-13T12:18:57.372Z,96052.81
2022-09-13T12:21:31.052Z,96080.84
2022-09-13T12:24:06.721Z,96076.78
2022-09-13T12:26:43.077Z,96075.19
2022-09-13T12:29:17.939Z,96052.28
2022-09-13T12:31:46.160Z,96052.81
2022-09-13T12:34:23.857Z,96083.81
2022-09-13T12:37:27.809Z,96065.75
2022-09-13T12:40:20.356Z,96055.53
2022-09-13T12:43:19.766Z,96042.03
2022-09-13T12:46:23.343Z,96021.84
2022-09-13T12:49:27.680Z,96064.66
2022-09-13T12:52:15.599Z,96043.38
2022-09-13T12:55:45.347Z,96031.78
2022-09-13T12:58:31.294Z,96059.53
2022-09-13T13:01:19.350Z,96050.66
2022-09-13T13:03:54.533Z,96056.31
2022-09-13T13:06:33.432Z,96010.47
2022-09-13T13:09:06.613Z,96033.88
2022-09-13T13:11:46.081Z,96011.28
2022-09-13T13:14:53.686Z,96062.94
2022-09-13T13:17:47.204Z,96022.00
2022-09-13T13:21:04.356Z,96029.00
2022-09-13T13:23:35.371Z,96053.72
2022-09-13T13:26:09.277Z,95996.69
2022-09-13T13:29:18.454Z,96036.28
2022-09-13T13:32:14.612Z,96046.38
2022-09-13T13:34:46.930Z,95987.53
2022-09-13T13:37:42.284Z,96006.38
2022-09-13T13:40:26.968Z,96055.88
2022-09-13T13:43:30.816Z,96031.41
2022-09-13T13:46:33.570Z,96012.25
2022-09-13T13:49:46.494Z,95991.28
2022-09-13T13:52:39.701Z,95982.66
2022-09-13T13:55:31.447Z,95956.03
2022-09-13T13:58:03.370Z,95946.63
2022-09-13T14:00:34.554Z,95961.97
2022-09-13T14:03:17.799Z,96008.81
2022-09-13T14:05:55.950Z,95937.44
2022-09-13T14:08:43.891Z,95964.88
2022-09-13T14:11:26.331Z,95997.72
2022-09-13T14:14:11.996Z,95922.84
2022-09-13T14:16:57.507Z,95968.28
2022-09-13T14:19:28.358Z,95953.47
2022-09-13T14:22:14.329Z,95945.06
2022-09-13T14:24:46.433Z,95936.78
2022-09-13T14:27:21.824Z,95983.50
2022-09-13T14:29:53.127Z,95985.94
2022-09-13T14:32:24.278Z,95984.31
2022-09-13T14:34:58.342Z,95986.75
2022-09-13T14:37:31.600Z,95940.44
2022-09-13T14:40:03.251Z,95962.56
2022-09-13T14:42:41.447Z,95970.06
2022-09-13T14:45:15.577Z,95908.47
2022-09-13T14:47:54.002Z,95923.47
2022-09-13T14:50:29.732Z,95935.88
2022-09-13T14:53:02.570Z,95908.75
2022-09-13T14:55:34.466Z,95934.53
2022-09-13T14:58:06.669Z,95940.25
2022-09-13T15:00:39.332Z,95908.53
2022-09-13T15:03:16.918Z,95953.91
2022-09-13T15:05:53.970Z,96056.41
2022-09-13T15:08:49.555Z,95970.16
2022-09-13T15:11:29.680Z,95907.22
2022-09-13T15:14:27.848Z,95988.50
2022-09-13T15:17:01.479Z,95931.38
2022-09-13T15:19:36.761Z,95912.47
2022-09-13T15:22:19.073Z,95919.47
2022-09-13T15:24:52.579Z,95881.38
2022-09-13T15:27:29.842Z,95953.84
2022-09-13T15:30:01.252Z,95952.00
2022-09-13T15:32:35.692Z,95921.31
2022-09-13T15:35:03.923Z,95885.81
2022-09-13T15:37:36.267Z,95923.47
2022-09-13T15:40:17.541Z,95954.94
2022-09-13T15:42:50.268Z,95932.06
2022-09-13T15:45:20.471Z,95896.03
2022-09-13T15:47:50.560Z,95895.47
2022-09-13T15:50:28.264Z,95957.63
2022-09-13T15:52:56.991Z,95979.16
2022-09-13T15:55:27.872Z,95890.56
2022-09-13T15:57:56.561Z,95900.88
2022-09-13T16:00:27.103Z,95795.22
2022-09-13T16:02:55.317Z,95954.34
2022-09-13T16:05:23.945Z,95943.53
2022-09-13T16:07:54.034Z,95904.53
2022-09-13T16:10:24.173Z,95859.38
2022-09-13T16:12:54.788Z,95918.50
2022-09-13T16:15:22.938Z,95872.25
2022-09-13T16:17:51.025Z,95892.63
2022-09-13T16:20:19.645Z,95832.94
2022-09-13T16:22:48.347Z,95891.16
2022-09-13T16:25:17.337Z,95870.53
2022-09-13T16:27:45.756Z,95896.28
2022-09-13T16:30:18.968Z,95880.09
2022-09-13T16:32:47.381Z,95904.53
2022-09-13T16:35:17.042Z,95915.56
2022-09-13T16:37:46.322Z,95902.63
2022-09-13T16:40:14.554Z,95870.88
2022-09-13T16:42:42.742Z,95855.72
2022-09-13T16:45:11.906Z,95851.84
2022-09-13T16:47:42.351Z,95878.44
2022-09-13T16:50:11.637Z,95843.75
2022-09-13T16:52:39.886Z,95860.75
2022-09-13T16:55:09.657Z,95860.81
2022-09-13T16:57:38.526Z,95865.56
2022-09-13T17:00:11.415Z,95820.31
2022-09-13T17:02:41.743Z,95837.88
2022-09-13T17:05:11.171Z,95861.72
2022-09-13T17:07:39.595Z,95890.25
2022-09-13T17:10:10.122Z,95839.13
2022-09-13T17:12:38.285Z,95933.38
2022-09-13T17:15:08.131Z,95713.53
2022-09-13T17:17:37.025Z,95850.25
2022-09-13T17:20:11.973Z,95827.28
2022-09-13T17:22:41.831Z,95810.84
2022-09-13T17:25:13.663Z,95821.56
2022-09-13T17:27:42.139Z,95839.22
2022-09-13T17:30:12.508Z,95856.47
2022-09-13T17:32:41.049Z,95852.09
2022-09-13T17:35:11.819Z,95819.81
2022-09-13T17:37:39.974Z,95869.16
2022-09-13T17:40:09.258Z,95856.63
2022-09-13T17:42:37.483Z,95771.72
2022-09-13T17:45:06.784Z,95864.06
2022-09-13T17:47:35.032Z,95809.41
2022-09-13T17:50:03.180Z,95861.09
2022-09-13T17:52:34.931Z,95810.81
2022-09-13T17:55:03.584Z,95852.25
2022-09-13T17:57:32.214Z,95876.81
2022-09-13T18:00:00.618Z,95923.88
2022-09-13T18:02:29.544Z,95878.25
2022-09-13T18:04:58.387Z,95871.81
2022-09-13T18:07:28.577Z,95894.53
2022-09-13T18:09:58.070Z,95828.28
2022-09-13T18:12:26.314Z,95855.59
2022-09-13T18:14:54.489Z,95845.78
2022-09-13T18:17:23.236Z,95866.88
2022-09-13T18:19:51.385Z,95923.97
2022-09-13T18:22:19.517Z,95836.16
2022-09-13T18:24:47.669Z,95833.00
2022-09-13T18:27:17.174Z,95852.50
2022-09-13T18:29:45.329Z,95863.56
2022-09-13T18:32:13.513Z,95876.91
2022-09-13T18:34:43.791Z,95878.34
2022-09-13T18:37:11.969Z,95849.50
2022-09-13T18:39:40.502Z,95893.78
2022-09-13T18:42:08.763Z,95882.25
2022-09-13T18:44:38.223Z,95856.00
2022-09-13T18:47:08.605Z,95894.44
2022-09-13T18:49:37.357Z,95864.78
2022-09-13T18:52:06.677Z,95847.69
2022-09-13T18:54:34.859Z,95800.25
2022-09-13T18:57:03.018Z,95882.81
2022-09-13T18:59:32.195Z,95849.84
2022-09-13T19:02:01.860Z,95862.28
2022-09-13T19:04:31.930Z,95864.53
2022-09-13T19:07:02.349Z,95840.25
2022-09-13T19:09:30.435Z,95868.47
2022-09-13T19:11:58.613Z,95895.00
2022-09-13T19:14:29.089Z,95828.19
2022-09-13T19:17:00.489Z,95835.03
2022-09-13T19:19:32.238Z,95885.06
2022-09-13T19:22:00.476Z,95703.56
2022-09-13T19:24:29.119Z,95936.91
2022-09-13T19:26:57.317Z,95907.03
2022-09-13T19:29:26.762Z,95872.13
2022-09-13T19:31:55.960Z,95922.38
2022-09-13T19:34:24.790Z,95883.69
2022-09-13T19:36:57.964Z,95929.53
2022-09-13T19:39:29.841Z,95878.03
2022-09-13T19:41:59.682Z,95911.03
2022-09-13T19:44:28.230Z,95893.75
2022-09-13T19:47:26.907Z,95925.19
2022-09-13T19:49:44.581Z,95907.78
2022-09-13T19:52:14.140Z,95890.28
2022-09-13T19:54:42.298Z,95883.44
2022-09-13T19:57:10.536Z,95870.91
2022-09-13T19:59:38.673Z,95903.63
2022-09-13T20:02:07.170Z,95895.41
2022-09-13T20:04:35.687Z,95915.34
2022-09-13T20:07:04.008Z,95873.97
2022-09-13T20:09:33.561Z,95898.16
2022-09-13T20:12:01.686Z,95890.41
2022-09-13T20:14:29.926Z,95884.72
2022-09-13T20:16:58.848Z,95909.41
2022-09-13T20:19:41.489Z,95952.69
2022-09-13T20:22:11.007Z,95913.84
2022-09-13T20:24:40.547Z,95905.47
2022-09-13T20:27:09.594Z,95867.19
2022-09-13T20:29:37.897Z,95884.84
2022-09-13T20:32:06.262Z,95877.66
2022-09-13T20:34:35.219Z,95939.69
2022-09-13T20:37:03.415Z,95882.88
2022-09-13T20:39:31.674Z,95847.28
2022-09-13T20:42:01.226Z,95855.66
2022-09-13T20:44:29.426Z,95838.16
2022-09-13T20:46:57.593Z,95901.63
2022-09-13T20:49:26.334Z,95911.16
2022-09-13T20:51:54.487Z,95912.19
2022-09-13T20:54:22.623Z,95787.88
2022-09-13T20:56:50.915Z,95657.94
2022-09-13T20:59:21.163Z,95888.19
2022-09-13T21:01:49.771Z,95861.44
2022-09-13T21:04:18.348Z,95862.03
2022-09-13T21:07:00.460Z,95754.38
2022-09-13T21:09:28.887Z,95794.63
2022-09-13T21:11:57.204Z,95833.59
2022-09-13T21:14:27.073Z,95828.16
2022-09-13T21:16:56.060Z,95897.91
2022-09-13T21:19:24.824Z,95864.22
2022-09-13T21:21:53.666Z,95920.78
2022-09-13T21:24:22.267Z,95862.59
2022-09-13T21:26:50.393Z,95864.22
2022-09-13T21:29:18.499Z,95839.09
2022-09-13T21:31:47.969Z,95891.09
2022-09-13T21:34:18.602Z,95931.22
2022-09-13T21:36:47.611Z,95884.69
2022-09-13T21:39:18.549Z,95794.84
2022-09-13T21:41:47.548Z,95809.06
2022-09-13T21:44:16.017Z,95874.69
2022-09-13T21:46:46.466Z,95857.91
2022-09-13T21:49:16.761Z,95876.28
2022-09-13T21:51:47.568Z,95804.44
2022-09-13T21:54:18.136Z,95913.44
2022-09-13T21:56:51.584Z,95823.34
2022-09-13T21:59:22.182Z,95866.44
2022-09-13T22:01:52.741Z,95891.22
2022-09-13T22:04:30.246Z,95837.56
2022-09-13T22:07:03.368Z,95861.53
2022-09-13T22:09:31.492Z,95873.94
2022-09-13T22:12:00.615Z,95857.41
2022-09-13T22:14:28.852Z,95841.53
2022-09-13T22:16:57.488Z,95844.31
2022-09-13T22:19:31.583Z,95849.72
2022-09-13T22:22:01.310Z,95854.34
2022-09-13T22:24:32.082Z,95811.31
2022-09-13T22:27:00.962Z,95905.44
2022-09-13T22:29:29.853Z,95858.31
2022-09-13T22:31:58.015Z,95832.31
2022-09-13T22:34:30.787Z,95885.97
2022-09-13T22:37:00.473Z,95872.06
2022-09-13T22:39:54.312Z,95821.81
2022-09-13T22:42:22.455Z,95870.31
2022-09-13T22:44:50.590Z,95868.69
2022-09-13T22:47:19.261Z,95806.31
2022-09-13T22:49:47.417Z,95849.13
2022-09-13T22:52:16.882Z,95802.72
2022-09-13T22:54:45.973Z,95803.66
2022-09-13T22:57:14.142Z,95809.81
2022-09-13T22:59:42.307Z,95761.28
2022-09-13T23:02:10.765Z,95753.88
2022-09-13T23:04:39.002Z,95800.28
2022-09-13T23:07:07.255Z,95803.78
2022-09-13T23:09:36.781Z,95772.75
2022-09-13T23:12:05.843Z,95862.91
2022-09-13T23:14:33.953Z,95770.19
2022-09-13T23:17:02.185Z,95755.63
2022-09-13T23:19:30.367Z,95759.22
2022-09-13T23:21:58.497Z,95804.31
2022-09-13T23:24:26.655Z,95785.47
2022-09-13T23:26:57.228Z,95811.03
2022-09-13T23:29:25.441Z,95765.22
2022-09-13T23:31:53.919Z,95753.66
2022-09-13T23:34:22.936Z,95808.28
2022-09-13T23:36:52.075Z,95742.19
2022-09-13T23:39:22.896Z,95686.41
2022-09-13T23:41:52.124Z,95692.16
2022-09-13T23:44:21.640Z,95795.13
2022-09-13T23:46:50.079Z,95723.91
2022-09-13T23:49:18.546Z,95734.75
2022-09-13T23:51:46.699Z,95731.06
2022-09-13T23:54:15.407Z,95749.03
2022-09-13T23:56:43.857Z,95773.72
2022-09-13T23:59:14.052Z,95763.13
